Terminal Aerodrome Forecast
Issued by NWS Bismarck, ND

Home | Current Version | Previous Version | Text Only | Print | Product List | Glossary On
Versions: 1 2 3 4 5 6 7 8 9 10 11 12 13 14 15 16 17 18 19 20 21 22
000
FTUS43 KBIS 051946 AAA
TAFISN
TAF AMD
KISN 051946Z 0520/0618 01014G21KT 4SM FU SCT050
     FM060100 34008KT 5SM FU BKN070
     FM061000 32005KT 3SM FU BKN035 OVC080=

USA.gov is the U.S. government's official web portal to all federal, state and local government web resources and services.